Time;durP1;ratioP1;P1;durP2;ratioP2;P2;SDS_P1;SDS_P2;PMS_P1;PMS_P2;Temp;Humidity;BMP_temperature;BMP_pressure;BME280_temperature;BME280_humidity;BME280_pressure;Samples;Min_cycle;Max_cycle;Signal;HPM_P1;HPM_P2
2023/01/26 00:01:06;;;;;;;180.68;58.80;;;1.40;99.90;;;;;;5005492;28;20039;-73
2023/01/26 00:03:32;;;;;;;172.88;56.15;;;1.40;99.90;;;;;;5003737;28;20130;-72
2023/01/26 00:06:05;;;;;;;157.23;53.83;;;1.30;99.90;;;;;;5003427;28;20049;-75
2023/01/26 00:08:36;;;;;;;163.10;54.22;;;1.30;99.90;;;;;;5005842;28;20391;-72
2023/01/26 00:11:06;;;;;;;166.00;55.00;;;1.50;99.90;;;;;;5001963;28;20357;-72
2023/01/26 00:13:32;;;;;;;174.90;55.35;;;1.60;99.90;;;;;;5006050;28;20023;-74
2023/01/26 00:15:58;;;;;;;174.13;54.42;;;1.60;99.90;;;;;;5003137;28;20018;-74
2023/01/26 00:18:24;;;;;;;151.43;51.88;;;1.50;99.90;;;;;;5004997;28;20475;-73
2023/01/26 00:20:58;;;;;;;160.07;52.92;;;1.40;99.90;;;;;;5004604;28;20025;-73
2023/01/26 00:23:24;;;;;;;177.48;55.10;;;1.50;99.90;;;;;;5004462;28;20022;-74
2023/01/26 00:25:50;;;;;;;159.98;53.65;;;1.50;99.90;;;;;;5003632;28;20022;-73
2023/01/26 00:28:15;;;;;;;160.40;53.92;;;1.60;99.90;;;;;;5006174;28;20040;-73
2023/01/26 00:30:41;;;;;;;163.80;51.53;;;1.50;99.90;;;;;;5002995;28;20021;-74
2023/01/26 00:33:07;;;;;;;146.85;51.20;;;1.50;99.90;;;;;;5007223;28;20092;-73
2023/01/26 00:35:32;;;;;;;163.00;54.47;;;1.50;99.90;;;;;;5003022;28;20034;-76
2023/01/26 00:37:58;;;;;;;165.23;53.85;;;1.30;99.90;;;;;;5004987;28;20041;-73
2023/01/26 00:40:24;;;;;;;159.38;52.90;;;1.30;99.90;;;;;;5004075;28;20060;-73
2023/01/26 00:42:49;;;;;;;189.40;54.20;;;1.40;99.90;;;;;;5002929;28;20030;-73
2023/01/26 00:45:15;;;;;;;169.02;55.80;;;1.40;99.90;;;;;;5005769;28;20030;-74
2023/01/26 00:47:41;;;;;;;170.63;55.90;;;1.40;99.90;;;;;;5004427;28;20121;-73
2023/01/26 00:50:07;;;;;;;188.80;56.03;;;1.50;99.90;;;;;;5002968;28;20030;-73
2023/01/26 00:52:33;;;;;;;157.30;51.40;;;1.60;99.90;;;;;;5005047;28;20085;-74
2023/01/26 00:54:58;;;;;;;147.75;50.15;;;1.30;99.90;;;;;;5004553;28;20031;-72
2023/01/26 00:57:24;;;;;;;168.73;56.22;;;1.40;99.90;;;;;;4995689;28;20022;-73
2023/01/26 00:59:50;;;;;;;175.93;57.08;;;1.40;99.90;;;;;;4994078;28;20034;-73
2023/01/26 01:02:15;;;;;;;161.85;53.10;;;1.40;99.90;;;;;;4994649;28;20027;-74
2023/01/26 01:04:41;;;;;;;157.15;49.95;;;1.30;99.90;;;;;;4994199;28;20398;-73
2023/01/26 01:07:06;;;;;;;158.57;51.08;;;1.40;99.90;;;;;;4993912;28;20479;-73
2023/01/26 01:09:32;;;;;;;162.55;52.85;;;1.40;99.90;;;;;;4995697;28;20046;-74
2023/01/26 01:11:58;;;;;;;140.13;49.10;;;1.40;99.90;;;;;;5012983;28;20455;-74
2023/01/26 01:14:24;;;;;;;151.32;49.92;;;1.40;99.90;;;;;;5013108;28;20030;-74
2023/01/26 01:16:50;;;;;;;164.35;51.60;;;1.40;99.90;;;;;;5012287;28;20430;-73
2023/01/26 01:19:16;;;;;;;139.93;49.15;;;1.50;99.90;;;;;;5010215;28;20026;-76
2023/01/26 01:21:43;;;;;;;152.55;49.08;;;1.50;99.90;;;;;;5006066;28;20134;-72
2023/01/26 01:24:09;;;;;;;171.80;51.67;;;1.50;99.90;;;;;;5010895;28;20497;-73
2023/01/26 01:26:34;;;;;;;157.02;51.47;;;1.50;99.90;;;;;;5002550;28;20022;-73
2023/01/26 01:29:00;;;;;;;137.50;47.20;;;1.50;99.90;;;;;;4994754;28;20404;-73
2023/01/26 01:31:28;;;;;;;142.95;46.53;;;1.50;99.90;;;;;;5002161;28;20057;-73
2023/01/26 01:33:54;;;;;;;146.15;49.70;;;1.60;99.90;;;;;;4999153;28;20487;-74
2023/01/26 01:36:20;;;;;;;136.73;47.13;;;1.60;99.90;;;;;;4993450;28;20038;-73
2023/01/26 01:38:46;;;;;;;137.35;51.83;;;1.70;99.90;;;;;;5001367;28;20050;-73
2023/01/26 01:41:15;;;;;;;145.27;49.35;;;1.60;99.90;;;;;;4993845;28;20022;-74
2023/01/26 01:43:40;;;;;;;147.68;48.88;;;1.70;99.90;;;;;;4992254;28;20383;-73
2023/01/26 01:46:34;;;;;;;144.48;50.50;;;1.60;99.90;;;;;;4993596;28;20030;-74
2023/01/26 01:49:02;;;;;;;143.93;46.05;;;1.60;99.90;;;;;;4993031;28;20037;-74
2023/01/26 01:51:30;;;;;;;141.57;45.63;;;1.70;99.90;;;;;;4991528;28;20092;-73
2023/01/26 01:54:00;;;;;;;142.07;45.85;;;1.70;99.90;;;;;;4993430;28;20030;-74
2023/01/26 01:56:28;;;;;;;182.30;50.85;;;1.70;99.90;;;;;;4992022;28;20026;-73
2023/01/26 01:58:57;;;;;;;156.07;49.92;;;1.70;99.90;;;;;;5005958;28;20029;-73
2023/01/26 02:01:23;;;;;;;155.57;48.40;;;1.80;99.90;;;;;;5012614;28;20022;-75
2023/01/26 02:03:52;;;;;;;150.00;48.83;;;1.70;99.90;;;;;;5012717;28;20041;-76
2023/01/26 02:06:22;;;;;;;144.18;47.47;;;1.60;99.90;;;;;;4995364;28;20023;-73
2023/01/26 02:08:51;;;;;;;128.95;44.50;;;1.70;99.90;;;;;;4992588;28;20045;-73
2023/01/26 02:11:35;;;;;;;139.95;47.00;;;1.80;99.90;;;;;;4992055;28;20026;-74
2023/01/26 02:14:05;;;;;;;151.40;48.20;;;1.80;99.90;;;;;;4993046;28;20034;-74
2023/01/26 02:16:31;;;;;;;144.48;45.45;;;1.80;99.90;;;;;;4993221;28;20577;-74
2023/01/26 02:18:56;;;;;;;137.00;46.13;;;1.80;99.90;;;;;;5009068;28;20105;-75
2023/01/26 02:21:23;;;;;;;137.52;46.67;;;1.80;99.90;;;;;;5018138;28;20382;-73
2023/01/26 02:24:06;;;;;;;149.52;48.65;;;1.80;99.90;;;;;;5005991;28;20034;-74
2023/01/26 02:26:36;;;;;;;154.10;49.95;;;1.70;99.90;;;;;;4992882;28;20368;-74
2023/01/26 02:29:05;;;;;;;143.38;46.65;;;1.80;99.90;;;;;;4993223;28;20042;-74
2023/01/26 02:31:31;;;;;;;143.57;46.38;;;1.90;99.90;;;;;;4993088;28;20447;-74
2023/01/26 02:33:57;;;;;;;156.65;49.25;;;1.90;99.90;;;;;;5011176;28;20116;-74
2023/01/26 02:36:26;;;;;;;183.00;52.03;;;1.90;99.90;;;;;;5009030;28;20083;-73
2023/01/26 02:38:56;;;;;;;155.98;49.40;;;2.00;99.90;;;;;;5011766;28;20089;-73
2023/01/26 02:44:09;;;;;;;133.15;46.97;;;2.00;99.90;;;;;;5012825;28;20033;-74
2023/01/26 02:46:34;;;;;;;134.27;45.85;;;2.10;99.90;;;;;;5012620;28;20453;-73
2023/01/26 02:51:44;;;;;;;159.95;45.15;;;2.10;99.90;;;;;;5012499;28;20091;-73
2023/01/26 02:55:21;;;;;;;136.70;44.88;;;2.10;99.90;;;;;;5012393;28;20097;-73
2023/01/26 02:56:56;;;;;;;130.50;44.58;;;2.20;99.90;;;;;;5012251;28;20510;-73
2023/01/26 02:59:21;;;;;;;171.07;47.88;;;2.10;99.90;;;;;;5012796;28;20064;-73
2023/01/26 03:01:49;;;;;;;178.27;49.83;;;2.10;99.90;;;;;;5011336;28;20386;-73
2023/01/26 03:04:15;;;;;;;136.77;45.70;;;2.10;99.90;;;;;;5010807;28;20038;-73
2023/01/26 03:06:40;;;;;;;137.70;44.40;;;2.10;99.90;;;;;;5005290;28;20383;-73
2023/01/26 03:09:06;;;;;;;135.43;47.22;;;2.20;99.90;;;;;;5010016;28;20466;-73
2023/01/26 03:11:40;;;;;;;156.65;48.35;;;2.10;99.90;;;;;;5012371;28;20105;-74
2023/01/26 03:14:07;;;;;;;152.27;49.20;;;2.20;99.90;;;;;;5016218;28;20018;-74
2023/01/26 03:16:32;;;;;;;147.98;47.00;;;2.30;99.90;;;;;;5016004;28;20482;-74
2023/01/26 03:29:44;;;;;;;123.78;39.97;;;2.30;99.90;;;;;;5012057;28;20509;-73
2023/01/26 03:32:10;;;;;;;115.35;39.70;;;2.20;99.90;;;;;;5014994;28;20048;-73
2023/01/26 03:34:36;;;;;;;118.30;39.90;;;2.20;99.90;;;;;;5014539;28;20113;-74
2023/01/26 03:37:02;;;;;;;133.55;40.00;;;2.20;99.90;;;;;;5015828;28;20068;-73
2023/01/26 03:58:41;;;;;;;170.18;47.70;;;2.40;99.90;;;;;;4996521;28;20177;-73
2023/01/26 04:01:09;;;;;;;144.38;45.97;;;2.30;99.90;;;;;;4994922;28;20499;-73
2023/01/26 04:09:03;;;;;;;152.85;45.50;;;2.20;99.90;;;;;;5002009;28;20085;-73
2023/01/26 04:11:29;;;;;;;141.20;43.58;;;2.30;99.90;;;;;;4998342;28;20402;-73
2023/01/26 04:22:07;;;;;;;137.43;42.33;;;2.30;99.90;;;;;;4995343;28;20576;-74
2023/01/26 04:24:32;;;;;;;136.43;42.20;;;2.30;99.90;;;;;;5020561;28;20022;-73
2023/01/26 04:26:58;;;;;;;163.05;44.03;;;2.30;99.90;;;;;;5014003;28;20018;-73
2023/01/26 04:29:23;;;;;;;152.73;42.63;;;2.30;99.90;;;;;;5014995;28;20041;-73
2023/01/26 04:31:49;;;;;;;129.95;41.00;;;2.30;99.90;;;;;;5014611;28;20097;-73
2023/01/26 04:34:15;;;;;;;148.93;43.42;;;2.40;99.90;;;;;;5013047;28;20069;-73
2023/01/26 04:36:41;;;;;;;137.52;41.40;;;2.40;99.90;;;;;;5014026;28;20102;-73
2023/01/26 04:39:07;;;;;;;133.52;41.03;;;2.30;99.90;;;;;;5014693;28;20412;-73
2023/01/26 04:41:33;;;;;;;172.77;45.72;;;2.30;99.90;;;;;;5013408;28;20371;-73
2023/01/26 04:43:59;;;;;;;156.63;42.75;;;2.40;99.90;;;;;;5013673;28;20029;-73
2023/01/26 04:46:24;;;;;;;187.38;48.80;;;2.40;99.90;;;;;;5014233;28;20029;-72
2023/01/26 04:48:50;;;;;;;132.45;41.28;;;2.30;99.90;;;;;;5007984;28;20049;-73
2023/01/26 04:51:21;;;;;;;175.00;48.50;;;2.40;99.90;;;;;;5005295;28;20065;-73
2023/01/26 04:53:48;;;;;;;158.32;46.17;;;2.40;99.90;;;;;;5014470;28;20402;-74
2023/01/26 04:56:25;;;;;;;133.50;43.28;;;2.40;99.90;;;;;;5014846;28;20029;-73
2023/01/26 04:58:52;;;;;;;172.27;44.65;;;2.40;99.90;;;;;;5013898;28;20386;-75
2023/01/26 05:01:18;;;;;;;186.05;45.90;;;2.40;99.90;;;;;;5014093;28;20053;-73
2023/01/26 05:03:43;;;;;;;158.93;45.83;;;2.50;99.90;;;;;;5002531;28;20035;-73
2023/01/26 05:06:09;;;;;;;155.35;41.80;;;2.40;99.90;;;;;;5000694;28;20033;-73
2023/01/26 05:08:36;;;;;;;170.38;44.65;;;2.50;99.90;;;;;;5014057;28;20030;-72
2023/01/26 05:11:02;;;;;;;142.00;42.40;;;2.60;99.90;;;;;;5012790;28;20471;-73
2023/01/26 05:13:28;;;;;;;160.70;42.65;;;2.50;99.90;;;;;;5006234;28;20121;-72
2023/01/26 05:15:53;;;;;;;150.88;42.90;;;2.60;99.90;;;;;;4994054;28;20045;-73
2023/01/26 05:18:19;;;;;;;162.18;44.95;;;2.60;99.90;;;;;;5011092;28;20120;-73
2023/01/26 05:20:44;;;;;;;130.80;40.85;;;2.60;99.90;;;;;;5013532;28;20025;-72
2023/01/26 05:23:10;;;;;;;145.25;42.83;;;2.50;99.90;;;;;;5012017;28;20450;-72
2023/01/26 05:25:35;;;;;;;129.35;40.15;;;2.50;99.90;;;;;;5013184;28;20018;-72
2023/01/26 05:28:01;;;;;;;135.85;41.13;;;2.50;99.90;;;;;;5013116;28;20026;-73
2023/01/26 05:30:26;;;;;;;132.95;39.88;;;2.50;99.90;;;;;;5013571;28;20437;-73
2023/01/26 05:32:52;;;;;;;161.10;42.70;;;2.50;99.90;;;;;;5013610;28;20032;-73
2023/01/26 05:35:18;;;;;;;122.20;37.20;;;2.50;99.90;;;;;;5012750;28;20034;-73
2023/01/26 05:37:44;;;;;;;128.10;38.05;;;2.60;99.90;;;;;;4995681;28;20023;-73
2023/01/26 05:40:11;;;;;;;126.95;37.92;;;2.60;99.90;;;;;;5007586;28;20255;-73
2023/01/26 05:42:37;;;;;;;135.82;42.42;;;2.60;99.90;;;;;;5013138;28;20018;-73
2023/01/26 05:45:04;;;;;;;129.88;38.80;;;2.60;99.90;;;;;;5013104;28;20018;-73
2023/01/26 05:47:30;;;;;;;173.48;42.72;;;2.60;99.90;;;;;;5013216;28;20497;-73
2023/01/26 05:49:55;;;;;;;145.25;40.70;;;2.60;99.90;;;;;;5013264;28;20037;-73
2023/01/26 05:52:21;;;;;;;141.10;39.22;;;2.70;99.90;;;;;;5011665;28;20018;-74
2023/01/26 05:54:47;;;;;;;159.90;41.78;;;2.60;99.90;;;;;;4997777;28;20053;-74
2023/01/26 05:57:15;;;;;;;150.75;40.55;;;2.70;99.90;;;;;;4992820;28;20049;-73
2023/01/26 05:59:41;;;;;;;155.20;40.72;;;2.70;99.90;;;;;;4999834;28;20030;-73
2023/01/26 06:02:08;;;;;;;130.57;38.45;;;2.70;99.90;;;;;;5012552;28;20410;-73
2023/01/26 06:04:33;;;;;;;112.00;34.35;;;2.70;99.90;;;;;;5013145;28;20034;-74
2023/01/26 06:06:59;;;;;;;103.18;32.78;;;2.80;99.90;;;;;;5012982;28;20079;-73
2023/01/26 06:09:25;;;;;;;102.97;33.70;;;2.80;99.90;;;;;;5011253;28;20044;-73
2023/01/26 06:11:51;;;;;;;99.43;30.75;;;2.70;99.90;;;;;;5012264;28;20029;-73
2023/01/26 06:14:16;;;;;;;121.80;35.38;;;2.70;99.90;;;;;;5005007;28;20471;-73
2023/01/26 06:16:42;;;;;;;106.57;32.60;;;2.70;99.90;;;;;;5012814;28;20033;-74
2023/01/26 06:19:09;;;;;;;111.43;34.63;;;2.60;99.90;;;;;;5012314;28;20045;-73
2023/01/26 06:21:35;;;;;;;101.32;32.55;;;2.60;99.90;;;;;;4992926;28;20061;-74
2023/01/26 06:24:01;;;;;;;98.78;31.98;;;2.70;99.90;;;;;;4993327;28;20058;-73
2023/01/26 06:26:26;;;;;;;106.78;33.35;;;2.80;99.90;;;;;;4992893;28;20049;-73
2023/01/26 06:28:52;;;;;;;103.18;32.35;;;2.80;99.90;;;;;;5004250;28;20048;-74
2023/01/26 06:31:18;;;;;;;113.80;35.45;;;2.80;99.90;;;;;;5012455;28;20021;-73
2023/01/26 06:33:44;;;;;;;111.63;33.42;;;2.80;99.90;;;;;;4992612;28;20398;-73
2023/01/26 06:36:14;;;;;;;103.68;32.47;;;2.80;99.90;;;;;;4992422;28;20357;-73
2023/01/26 06:38:51;;;;;;;109.72;33.45;;;2.90;99.90;;;;;;4991539;28;20099;-73
2023/01/26 06:41:17;;;;;;;96.95;32.83;;;2.90;99.90;;;;;;4992019;28;20367;-73
2023/01/26 06:43:46;;;;;;;92.72;31.45;;;2.90;99.90;;;;;;4993676;28;20054;-73
2023/01/26 06:46:12;;;;;;;103.60;32.50;;;2.90;99.90;;;;;;4999795;28;20010;-74
2023/01/26 06:48:38;;;;;;;109.95;31.48;;;2.80;99.90;;;;;;5016460;28;20124;-73
2023/01/26 06:51:16;;;;;;;130.05;34.40;;;2.80;99.90;;;;;;5015549;28;20048;-74
2023/01/26 06:53:46;;;;;;;132.00;34.83;;;2.80;99.90;;;;;;5014959;28;20047;-73
2023/01/26 06:56:11;;;;;;;156.45;37.88;;;2.80;99.90;;;;;;5009128;28;20033;-73
2023/01/26 06:58:37;;;;;;;110.95;31.83;;;2.90;99.90;;;;;;5016470;28;20033;-74
2023/01/26 07:01:03;;;;;;;110.90;31.70;;;2.80;99.90;;;;;;5015552;28;20375;-73
2023/01/26 07:03:29;;;;;;;109.80;32.35;;;2.90;99.90;;;;;;5016571;28;20044;-73
2023/01/26 07:05:55;;;;;;;104.70;31.80;;;2.90;99.90;;;;;;5015687;28;20022;-73
2023/01/26 07:08:20;;;;;;;101.78;31.02;;;2.80;99.90;;;;;;5015292;28;20034;-75
2023/01/26 07:10:46;;;;;;;105.88;30.80;;;2.90;99.90;;;;;;5015837;28;20026;-73
2023/01/26 07:13:11;;;;;;;151.18;35.97;;;2.90;99.90;;;;;;5002114;28;20026;-73
2023/01/26 07:15:37;;;;;;;103.40;32.53;;;2.80;99.90;;;;;;5006577;28;20041;-74
2023/01/26 07:18:03;;;;;;;101.45;32.13;;;2.80;99.90;;;;;;5013485;28;20026;-74
2023/01/26 07:20:28;;;;;;;125.03;31.35;;;2.90;99.90;;;;;;5015904;28;20030;-73
2023/01/26 07:22:54;;;;;;;107.80;32.40;;;2.90;99.90;;;;;;5015642;28;20363;-73
2023/01/26 07:25:20;;;;;;;107.60;34.30;;;2.90;99.90;;;;;;5015694;28;20056;-75
2023/01/26 07:27:45;;;;;;;104.90;31.65;;;2.90;99.90;;;;;;5015817;28;20057;-74
2023/01/26 07:30:14;;;;;;;106.90;31.67;;;2.90;99.90;;;;;;5014979;28;20062;-73
2023/01/26 07:32:41;;;;;;;106.75;31.23;;;3.00;99.90;;;;;;5014590;28;20034;-73
2023/01/26 07:35:07;;;;;;;111.53;33.40;;;3.00;99.90;;;;;;5015748;28;20034;-74
2023/01/26 07:37:32;;;;;;;110.40;33.47;;;3.00;99.90;;;;;;5014986;28;20057;-73
2023/01/26 07:39:58;;;;;;;99.07;30.48;;;3.00;99.90;;;;;;4996842;28;20474;-73
2023/01/26 07:42:23;;;;;;;106.63;31.73;;;3.00;99.90;;;;;;4996153;28;20041;-73
2023/01/26 07:44:49;;;;;;;124.85;33.80;;;3.00;99.90;;;;;;4995957;28;20528;-73
2023/01/26 07:47:14;;;;;;;114.93;32.17;;;3.00;99.90;;;;;;5013448;28;20030;-74
2023/01/26 07:49:40;;;;;;;100.95;31.88;;;3.10;99.90;;;;;;5015909;28;20389;-73
2023/01/26 07:52:07;;;;;;;103.72;31.38;;;3.00;99.90;;;;;;5014447;28;20022;-74
2023/01/26 07:54:33;;;;;;;104.20;31.42;;;3.10;99.90;;;;;;5015533;28;20113;-74
2023/01/26 07:56:58;;;;;;;103.93;29.95;;;3.00;99.90;;;;;;5014394;28;20494;-73
2023/01/26 07:59:24;;;;;;;104.47;30.58;;;3.10;99.90;;;;;;4994950;28;20026;-73
2023/01/26 08:01:50;;;;;;;99.78;30.35;;;3.10;99.90;;;;;;4995303;28;20026;-73
2023/01/26 08:04:16;;;;;;;97.95;28.05;;;3.10;99.90;;;;;;4998327;28;20045;-73
2023/01/26 08:06:42;;;;;;;101.65;28.95;;;3.20;99.90;;;;;;5014900;28;20018;-74
2023/01/26 08:09:08;;;;;;;56.25;21.55;;;3.20;99.90;;;;;;5008502;28;20046;-75
2023/01/26 08:11:33;;;;;;;100.32;30.48;;;3.20;99.90;;;;;;5003413;28;20080;-74
2023/01/26 08:13:59;;;;;;;90.47;30.48;;;3.30;99.90;;;;;;5002471;28;20041;-74
2023/01/26 08:16:25;;;;;;;99.68;29.58;;;3.20;99.90;;;;;;4999115;28;20077;-75
2023/01/26 08:18:51;;;;;;;107.97;31.52;;;3.20;99.90;;;;;;5010942;28;20072;-74
2023/01/26 08:21:18;;;;;;;100.50;31.08;;;3.20;99.90;;;;;;5015136;28;20382;-74
2023/01/26 08:23:50;;;;;;;110.80;31.05;;;3.20;99.90;;;;;;5014880;28;20067;-75
2023/01/26 08:26:17;;;;;;;113.13;31.90;;;3.20;99.90;;;;;;4996028;28;20521;-75
2023/01/26 08:28:43;;;;;;;112.20;32.20;;;3.30;99.90;;;;;;4994798;28;20038;-76
2023/01/26 08:31:19;;;;;;;117.22;33.17;;;3.30;99.90;;;;;;5006051;28;20022;-74
2023/01/26 08:33:46;;;;;;;105.90;31.35;;;3.20;99.90;;;;;;5013053;28;20492;-74
2023/01/26 08:36:13;;;;;;;114.03;32.05;;;3.30;99.90;;;;;;5012928;28;20021;-74
2023/01/26 08:38:38;;;;;;;108.40;30.33;;;3.30;99.90;;;;;;5009760;28;20396;-73
2023/01/26 08:41:04;;;;;;;110.78;31.92;;;3.30;99.90;;;;;;5011951;28;20022;-74
2023/01/26 08:43:30;;;;;;;65.70;24.42;;;3.40;99.90;;;;;;5011267;28;20030;-75
2023/01/26 08:45:55;;;;;;;94.15;29.02;;;3.50;99.90;;;;;;5007009;28;20026;-74
2023/01/26 08:48:21;;;;;;;89.82;27.35;;;3.50;99.90;;;;;;5014464;28;20642;-74
2023/01/26 08:50:47;;;;;;;141.82;29.75;;;3.50;99.90;;;;;;5012954;28;20025;-81
2023/01/26 08:53:13;;;;;;;86.43;27.73;;;3.50;99.90;;;;;;5014761;28;20057;-74
2023/01/26 08:55:38;;;;;;;56.38;22.05;;;3.40;99.90;;;;;;5007540;28;20058;-74
2023/01/26 08:58:04;;;;;;;81.40;25.98;;;3.50;99.90;;;;;;5010932;28;20053;-74
2023/01/26 09:00:30;;;;;;;85.28;27.25;;;3.60;99.90;;;;;;5003811;28;20080;-75
2023/01/26 09:03:03;;;;;;;77.47;24.45;;;3.50;99.90;;;;;;5002921;28;20549;-82
2023/01/26 09:05:35;;;;;;;80.35;25.20;;;3.50;99.90;;;;;;4993939;28;20017;-84
2023/01/26 09:08:01;;;;;;;73.97;23.33;;;3.50;99.90;;;;;;5007457;28;20387;-78
2023/01/26 09:10:27;;;;;;;74.50;23.02;;;3.50;99.90;;;;;;5004980;28;20105;-85
2023/01/26 09:12:53;;;;;;;77.90;23.80;;;3.50;99.90;;;;;;5003561;28;20161;-73
2023/01/26 09:15:18;;;;;;;69.35;23.48;;;3.50;99.90;;;;;;4995547;28;20037;-74
2023/01/26 09:17:47;;;;;;;79.03;22.85;;;3.50;99.90;;;;;;5024429;28;20022;-75
2023/01/26 09:20:13;;;;;;;75.90;25.55;;;3.50;99.90;;;;;;5007040;28;20033;-74
2023/01/26 09:22:39;;;;;;;69.28;22.00;;;3.50;99.90;;;;;;5005657;28;20026;-77
2023/01/26 09:25:05;;;;;;;72.15;22.25;;;3.60;99.90;;;;;;4996507;28;20096;-79
2023/01/26 09:27:31;;;;;;;76.32;21.25;;;3.50;99.90;;;;;;5004715;28;20037;-78
2023/01/26 09:29:57;;;;;;;62.25;21.90;;;3.50;99.90;;;;;;5007012;28;20409;-74
2023/01/26 09:32:22;;;;;;;70.68;21.63;;;3.50;99.90;;;;;;5008518;28;20033;-74
2023/01/26 09:34:48;;;;;;;56.95;19.35;;;3.50;99.90;;;;;;5002827;28;20033;-74
2023/01/26 09:37:14;;;;;;;61.92;20.02;;;3.60;99.90;;;;;;5004767;28;20060;-75
2023/01/26 09:39:40;;;;;;;62.65;19.17;;;3.60;99.90;;;;;;5004106;28;20455;-75
2023/01/26 09:42:25;;;;;;;74.07;23.80;;;3.60;99.90;;;;;;5008603;28;20030;-75
2023/01/26 09:45:13;;;;;;;59.63;21.17;;;3.60;99.90;;;;;;5005106;28;20029;-74
2023/01/26 09:48:03;;;;;;;67.22;21.38;;;3.60;99.90;;;;;;5006128;28;20038;-77
2023/01/26 09:50:59;;;;;;;83.13;24.73;;;3.60;99.90;;;;;;5002572;28;20033;-77
2023/01/26 09:53:26;;;;;;;54.45;19.25;;;3.60;99.90;;;;;;5001699;28;20090;-93
2023/01/26 09:55:53;;;;;;;58.10;19.92;;;3.60;99.90;;;;;;5003299;28;20302;-73
2023/01/26 09:58:39;;;;;;;59.97;18.70;;;3.60;99.90;;;;;;5006605;28;21253;-73
2023/01/26 10:01:15;;;;;;;56.42;18.42;;;3.60;99.90;;;;;;5005801;28;20022;-73
2023/01/26 10:03:46;;;;;;;64.50;22.83;;;3.70;99.90;;;;;;5006274;28;20517;-73
2023/01/26 10:06:27;;;;;;;68.38;22.92;;;3.70;99.90;;;;;;5002264;28;20041;-74
2023/01/26 10:08:55;;;;;;;62.38;22.27;;;3.70;99.90;;;;;;5001496;28;20041;-73
2023/01/26 10:11:30;;;;;;;55.22;20.30;;;3.60;99.90;;;;;;5001242;28;20153;-74
2023/01/26 10:14:13;;;;;;;90.85;24.75;;;3.60;99.90;;;;;;5007575;28;20120;-74
2023/01/26 10:16:41;;;;;;;72.22;21.88;;;3.70;99.90;;;;;;5005882;28;20026;-74
2023/01/26 10:19:21;;;;;;;62.38;20.95;;;3.70;99.90;;;;;;5004858;28;20157;-73
2023/01/26 10:21:49;;;;;;;104.13;23.52;;;3.70;99.90;;;;;;5002294;28;20120;-73
2023/01/26 10:24:19;;;;;;;76.30;21.00;;;3.70;99.90;;;;;;5004793;28;20022;-75
2023/01/26 10:26:44;;;;;;;71.60;21.75;;;3.70;99.90;;;;;;4999988;28;20030;-74
2023/01/26 10:29:14;;;;;;;75.45;22.42;;;3.80;99.90;;;;;;5005694;28;20049;-74
2023/01/26 10:31:40;;;;;;;76.97;22.70;;;3.70;99.90;;;;;;5001434;28;20484;-74
2023/01/26 10:34:12;;;;;;;72.35;21.92;;;3.70;99.90;;;;;;5004958;28;20034;-74
2023/01/26 10:36:41;;;;;;;103.38;24.17;;;3.80;99.90;;;;;;5001004;28;20053;-73
2023/01/26 10:39:08;;;;;;;73.85;20.40;;;3.80;99.90;;;;;;5006598;28;20076;-74
2023/01/26 10:41:34;;;;;;;97.90;25.10;;;3.70;99.90;;;;;;5001808;28;20482;-74
2023/01/26 10:44:01;;;;;;;88.80;25.50;;;3.70;99.90;;;;;;5006269;28;20018;-74
2023/01/26 10:46:34;;;;;;;128.73;27.65;;;3.70;99.90;;;;;;5002155;28;20044;-74
2023/01/26 10:49:10;;;;;;;104.30;25.48;;;3.80;99.90;;;;;;5005754;28;20030;-74
2023/01/26 10:51:38;;;;;;;93.45;24.58;;;3.70;99.90;;;;;;5006019;28;20026;-75
2023/01/26 10:54:26;;;;;;;105.00;25.98;;;3.80;99.90;;;;;;5006616;28;20030;-74
2023/01/26 10:57:18;;;;;;;94.72;24.35;;;3.80;99.90;;;;;;5004353;28;20018;-74
2023/01/26 10:59:56;;;;;;;99.75;24.77;;;3.80;99.90;;;;;;5007550;28;20105;-74
2023/01/26 11:02:30;;;;;;;105.03;26.38;;;3.80;99.90;;;;;;5003822;28;20084;-74
2023/01/26 11:05:01;;;;;;;129.40;30.05;;;3.80;99.90;;;;;;5005657;28;20030;-75
2023/01/26 11:07:33;;;;;;;150.57;30.10;;;3.80;99.90;;;;;;5005186;28;20112;-74
2023/01/26 11:10:16;;;;;;;110.53;27.60;;;3.80;99.90;;;;;;4998247;28;20056;-74
2023/01/26 11:12:41;;;;;;;123.88;27.60;;;3.80;99.90;;;;;;5001073;28;20372;-74
2023/01/26 11:15:19;;;;;;;105.05;27.05;;;3.80;99.90;;;;;;4999601;28;20443;-75
2023/01/26 11:17:57;;;;;;;105.68;27.00;;;3.80;99.90;;;;;;5002530;28;20048;-74
2023/01/26 11:20:40;;;;;;;111.82;29.10;;;3.90;99.90;;;;;;4995462;28;20096;-74
2023/01/26 11:23:43;;;;;;;104.35;29.70;;;3.90;99.90;;;;;;5002666;28;20114;-75
2023/01/26 11:26:09;;;;;;;;;;;3.90;99.90;;;;;;5004998;28;20377;-74
2023/01/26 11:29:02;;;;;;;103.93;29.20;;;3.80;99.90;;;;;;4999587;28;19948;-73
2023/01/26 11:31:56;;;;;;;123.03;29.27;;;3.90;99.90;;;;;;5000162;28;20474;-74
2023/01/26 11:34:26;;;;;;;147.13;31.90;;;3.90;99.90;;;;;;4998071;28;20036;-74
2023/01/26 11:36:57;;;;;;;89.47;27.58;;;3.90;99.90;;;;;;5006780;28;20036;-74
2023/01/26 11:39:51;;;;;;;103.65;28.70;;;3.90;99.90;;;;;;5006130;28;20034;-74
2023/01/26 11:42:37;;;;;;;109.85;28.45;;;3.80;99.90;;;;;;5004109;28;20098;-78
2023/01/26 11:45:26;;;;;;;116.93;29.00;;;3.90;99.90;;;;;;5001397;28;20360;-74
2023/01/26 11:47:58;;;;;;;145.20;32.08;;;3.90;99.90;;;;;;5004358;28;20113;-73
2023/01/26 11:50:46;;;;;;;132.23;29.65;;;3.90;99.90;;;;;;5003204;28;20049;-73
2023/01/26 11:53:31;;;;;;;121.28;30.70;;;4.00;99.90;;;;;;5003348;28;20103;-72
2023/01/26 11:55:56;;;;;;;111.85;29.15;;;4.10;99.90;;;;;;5003990;28;20029;-74
2023/01/26 11:58:26;;;;;;;98.80;27.13;;;4.20;99.90;;;;;;5003962;28;20037;-73
2023/01/26 12:00:58;;;;;;;121.10;30.77;;;4.10;99.90;;;;;;5004378;28;20025;-71
2023/01/26 12:03:44;;;;;;;133.27;32.60;;;4.20;99.90;;;;;;5005204;28;20053;-71
2023/01/26 12:06:36;;;;;;;151.60;33.08;;;4.20;99.90;;;;;;5003303;28;20026;-71
2023/01/26 12:09:10;;;;;;;155.52;32.97;;;4.20;99.90;;;;;;5002531;28;20395;-71
2023/01/26 12:11:44;;;;;;;149.43;35.80;;;4.20;99.90;;;;;;5009673;28;20022;-70
2023/01/26 12:14:22;;;;;;;127.72;31.70;;;4.30;99.90;;;;;;5009654;28;20033;-71
2023/01/26 12:17:01;;;;;;;123.50;32.35;;;4.30;99.90;;;;;;5009689;28;20060;-74
2023/01/26 12:20:03;;;;;;;143.07;33.92;;;4.40;99.90;;;;;;5006377;28;20114;-72
2023/01/26 12:22:36;;;;;;;131.23;33.47;;;4.40;99.90;;;;;;5006233;28;20026;-71
2023/01/26 12:25:08;;;;;;;161.73;36.05;;;4.50;99.90;;;;;;5008266;28;20128;-72
2023/01/26 12:27:42;;;;;;;143.60;33.63;;;4.50;99.90;;;;;;5009047;28;20010;-69
2023/01/26 12:30:32;;;;;;;141.63;33.05;;;4.60;99.90;;;;;;5008592;28;20052;-70
2023/01/26 12:32:58;;;;;;;160.27;35.10;;;4.60;99.90;;;;;;5008703;28;20037;-74
2023/01/26 12:35:49;;;;;;;146.75;35.85;;;4.70;99.90;;;;;;5010484;28;20656;-71
2023/01/26 12:38:20;;;;;;;155.98;36.45;;;4.70;99.90;;;;;;5009056;28;20030;-72
2023/01/26 12:41:19;;;;;;;142.18;35.13;;;4.60;99.90;;;;;;4992882;28;20049;-71
2023/01/26 12:44:13;;;;;;;144.18;32.65;;;4.70;99.90;;;;;;5016648;28;20030;-73
2023/01/26 12:46:45;;;;;;;170.63;36.25;;;4.80;99.90;;;;;;5005239;28;20030;-70
2023/01/26 12:49:27;;;;;;;171.85;38.10;;;4.80;99.90;;;;;;5024224;28;20038;-74
2023/01/26 12:52:01;;;;;;;152.15;36.38;;;4.80;99.90;;;;;;5009537;28;20018;-68
2023/01/26 12:54:39;;;;;;;180.55;39.65;;;4.80;99.90;;;;;;5008632;28;20144;-74
2023/01/26 12:57:11;;;;;;;197.30;42.13;;;4.90;99.90;;;;;;5008708;28;20113;-73
2023/01/26 12:59:38;;;;;;;218.75;42.55;;;4.90;99.90;;;;;;5010022;28;20270;-70
2023/01/26 13:02:32;;;;;;;183.50;37.67;;;4.90;99.90;;;;;;4995999;28;20464;-78
2023/01/26 13:05:00;;;;;;;196.38;39.83;;;5.00;99.90;;;;;;5008989;28;20490;-70
2023/01/26 13:07:27;;;;;;;178.80;41.78;;;5.00;99.90;;;;;;5008739;28;20037;-69
2023/01/26 13:10:07;;;;;;;185.25;40.47;;;5.00;99.90;;;;;;5007899;28;20092;-71
2023/01/26 13:12:51;;;;;;;191.23;41.90;;;5.10;99.90;;;;;;5008208;28;20027;-72
2023/01/26 13:15:20;;;;;;;191.93;43.50;;;5.20;99.90;;;;;;5024207;28;20117;-71
2023/01/26 13:17:57;;;;;;;161.82;39.95;;;5.20;99.90;;;;;;4993274;28;20425;-72
2023/01/26 13:20:28;;;;;;;179.77;41.47;;;5.30;99.90;;;;;;5008896;28;20021;-71
2023/01/26 13:22:55;;;;;;;189.98;45.28;;;5.30;99.90;;;;;;5008986;28;20022;-72
2023/01/26 13:25:31;;;;;;;206.38;44.85;;;5.40;99.90;;;;;;5009460;28;20021;-71
2023/01/26 13:27:58;;;;;;;218.68;43.08;;;5.50;99.90;;;;;;5024984;28;20034;-71
2023/01/26 13:30:29;;;;;;;185.18;39.30;;;5.50;99.90;;;;;;5007458;28;20425;-70